This is the latest recevied weather packets stored in our database for station/object DD3FC-1. If no packets are shown the sender has not sent any weather packets the latest 1 day(s).
| Time | Temp. | Humidity | Pressure | Rain* | Wind** | Luminosity | Snow |
|---|---|---|---|---|---|---|---|
| 1836274708 | 15.56° C | 84% | 1020.8 hPa | 0 mm | 0 m/s | - | - |
| 1836274558 | 15.56° C | 84% | 1020.8 hPa | 0 mm | 0.45 m/s, 119° | - | - |
| 1836274108 | 15.56° C | 83% | 1020.9 hPa | 0 mm | 0 m/s | - | - |
| 1778005226 | 16.67° C | 79% | 1008.1 hPa | 0 mm | 0 m/s | - | - |
| 1778004626 | 16.67° C | 77% | 1008.1 hPa | 0 mm | 0 m/s | - | - |
| 1778004026 | 17.22° C | 77% | 1008 hPa | 0 mm | 0 m/s | - | - |
| 1778003426 | 17.22° C | 77% | 1008.1 hPa | 0 mm | 0 m/s | - | - |
| 1778002826 | 17.22° C | 77% | 1008 hPa | 0 mm | 0 m/s | - | - |
| 1778002226 | 17.22° C | 78% | 1008.2 hPa | 0 mm | 0 m/s | - | - |
| 1778001626 | 17.22° C | 78% | 1008.1 hPa | 0 mm | 0 m/s | - | - |
| 1778001026 | 16.67° C | 78% | 1008.1 hPa | 0 mm | 0 m/s | - | - |
| 1778000426 | 16.67° C | 78% | 1008.1 hPa | 0 mm | 0 m/s | - | - |
| 1777999826 | 16.67° C | 77% | 1008.3 hPa | 0 mm | 0 m/s | - | - |
| 1777999226 | 17.22° C | 79% | 1008.3 hPa | 0 mm | 0 m/s | - | - |
| 1777998626 | 17.22° C | 80% | 1008.3 hPa | 0 mm | 0 m/s | - | - |
| 1777998026 | 17.22° C | 80% | 1008.5 hPa | 0 mm | 0 m/s | - | - |
| 1777997426 | 16.67° C | 81% | 1008.5 hPa | 0 mm | 0 m/s | - | - |
| 1777996826 | 16.67° C | 80% | 1008.5 hPa | 0 mm | 0 m/s | - | - |
| 1777996226 | 16.67° C | 80% | 1008.4 hPa | 0 mm | 0 m/s | - | - |
| 1777995626 | 16.67° C | 83% | 1008.5 hPa | 0 mm | 0 m/s | - | - |
| 1777995026 | 16.11° C | 84% | 1008.4 hPa | 0 mm | 0 m/s | - | - |
| 1777994426 | 16.11° C | 83% | 1008.5 hPa | 0 mm | 0 m/s | - | - |
| 1777993826 | 16.11° C | 84% | 1008.6 hPa | 0 mm | 0 m/s | - | - |
| 1777993226 | 16.67° C | 85% | 1008.8 hPa | 0 mm | 0 m/s | - | - |
| 1777992626 | 16.67° C | 84% | 1009 hPa | 0.25 mm | 0 m/s | - | - |
* Rain latest hour (hover to see other rain measurements)
** Current wind speed in m/s (hover to see current wind gust speed)